createdAt,value
2019-01-27T00:01:29.314Z,94290.45
2019-01-27T00:03:56.697Z,94290.45
2019-01-27T00:06:24.159Z,94299.31
2019-01-27T00:08:51.890Z,94291.12
2019-01-27T00:11:19.267Z,94291.12
2019-01-27T00:13:46.722Z,94287.44
2019-01-27T00:16:14.458Z,94275.09
2019-01-27T00:18:41.853Z,94275.09
2019-01-27T00:21:09.360Z,94267.74
2019-01-27T00:23:36.763Z,94253.87
2019-01-27T00:26:04.318Z,94253.87
2019-01-27T00:28:31.844Z,94256.03
2019-01-27T00:30:59.335Z,94253.56
2019-01-27T00:33:26.780Z,94242.03
2019-01-27T00:35:54.200Z,94233.23
2019-01-27T00:38:21.903Z,94213.36
2019-01-27T00:40:49.634Z,94213.36
2019-01-27T00:43:17.239Z,94223.23
2019-01-27T00:45:44.584Z,94226.31
2019-01-27T00:48:12.413Z,94214.22
2019-01-27T00:50:39.851Z,94214.22
2019-01-27T00:53:07.214Z,94208.08
2019-01-27T00:55:34.580Z,94202.23
2019-01-27T00:58:01.991Z,94192.91
2019-01-27T01:00:29.451Z,94193.00
2019-01-27T01:02:56.931Z,94188.55
2019-01-27T01:05:24.671Z,94184.88
2019-01-27T01:07:52.070Z,94189.20
2019-01-27T01:10:20.174Z,94197.76
2019-01-27T01:12:48.673Z,94185.66
2019-01-27T01:15:17.279Z,94186.67
2019-01-27T01:17:44.733Z,94186.92
2019-01-27T01:20:14.684Z,94183.77
2019-01-27T01:22:42.161Z,94181.98
2019-01-27T01:25:12.494Z,94179.13
2019-01-27T01:27:39.972Z,94182.66
2019-01-27T01:30:08.563Z,94169.78
2019-01-27T01:32:35.915Z,94167.45
2019-01-27T01:35:04.614Z,94148.56
2019-01-27T01:37:31.991Z,94148.56
2019-01-27T01:39:59.371Z,94133.34
2019-01-27T01:42:26.831Z,94127.88
2019-01-27T01:44:54.354Z,94113.29
2019-01-27T01:47:21.806Z,94107.84
2019-01-27T01:49:49.271Z,94107.84
2019-01-27T01:52:16.712Z,94095.59
2019-01-27T01:54:44.406Z,94095.59
2019-01-27T01:57:11.777Z,94092.06
2019-01-27T01:59:39.217Z,94093.48
2019-01-27T02:02:06.737Z,94097.75
2019-01-27T02:04:34.117Z,94089.97
2019-01-27T02:07:01.550Z,94078.23
2019-01-27T02:09:28.911Z,94084.34
2019-01-27T02:11:56.263Z,94081.89
2019-01-27T02:14:24.593Z,94067.44
2019-01-27T02:16:51.994Z,94069.03
2019-01-27T02:19:19.351Z,94069.17
2019-01-27T02:21:47.474Z,94065.32
2019-01-27T02:24:14.851Z,94054.91
2019-01-27T02:26:42.210Z,94054.91
2019-01-27T02:29:09.651Z,94055.98
2019-01-27T02:31:37.068Z,94055.98
2019-01-27T02:34:04.971Z,94044.33
2019-01-27T02:36:32.428Z,94033.53
2019-01-27T02:38:59.895Z,94032.84
2019-01-27T02:41:27.276Z,94032.84
2019-01-27T02:43:54.687Z,94013.09
2019-01-27T02:46:22.113Z,94015.59
2019-01-27T02:48:49.471Z,94003.27
2019-01-27T02:51:16.994Z,93992.66
2019-01-27T02:53:44.417Z,93988.82
2019-01-27T02:56:11.801Z,93988.48
2019-01-27T02:58:39.151Z,93980.91
2019-01-27T03:01:06.783Z,93985.92
2019-01-27T03:03:34.231Z,93973.68
2019-01-27T03:06:19.759Z,93973.68
2019-01-27T03:08:58.990Z,93976.31
2019-01-27T03:11:26.544Z,93965.10
2019-01-27T03:13:53.951Z,93956.33
2019-01-27T03:16:21.352Z,93956.66
2019-01-27T03:18:48.754Z,93958.09
2019-01-27T03:21:16.156Z,93947.74
2019-01-27T03:23:43.552Z,93950.53
2019-01-27T03:26:10.991Z,93942.51
2019-01-27T03:28:38.745Z,93932.61
2019-01-27T03:31:06.179Z,93932.68
2019-01-27T03:33:33.650Z,93930.66
2019-01-27T03:36:01.033Z,93922.07
2019-01-27T03:38:28.441Z,93927.05
2019-01-27T03:40:56.225Z,93937.73
2019-01-27T03:43:23.583Z,93935.09
2019-01-27T03:45:50.973Z,93936.00
2019-01-27T03:48:18.826Z,93936.00
2019-01-27T03:50:46.233Z,93930.27
2019-01-27T03:53:13.653Z,93932.66
2019-01-27T03:55:41.073Z,93932.66
2019-01-27T03:58:08.772Z,93922.95
2019-01-27T04:00:36.160Z,93922.95
2019-01-27T04:03:03.575Z,93908.87
2019-01-27T04:05:31.038Z,93910.54
2019-01-27T04:07:58.466Z,93905.09
2019-01-27T04:10:25.903Z,93903.23
2019-01-27T04:12:53.311Z,93903.23
2019-01-27T04:15:20.951Z,93898.97
2019-01-27T04:17:48.371Z,93896.02
2019-01-27T04:20:17.652Z,93896.41
2019-01-27T04:22:45.216Z,93897.38
2019-01-27T04:25:13.917Z,93884.98
2019-01-27T04:27:41.302Z,93886.36
2019-01-27T04:30:14.494Z,93879.29
2019-01-27T04:32:41.881Z,93879.16
2019-01-27T04:35:10.371Z,93875.14
2019-01-27T04:37:37.783Z,93866.26
2019-01-27T04:40:07.507Z,93853.41
2019-01-27T04:42:34.872Z,93853.41
2019-01-27T04:45:02.613Z,93859.70
2019-01-27T04:47:30.027Z,93854.61
2019-01-27T04:49:57.472Z,93848.42
2019-01-27T04:52:24.866Z,93848.72
2019-01-27T04:54:52.293Z,93852.91
2019-01-27T04:57:19.671Z,93852.91
2019-01-27T04:59:47.425Z,93847.11
2019-01-27T05:02:15.191Z,93829.47
2019-01-27T05:04:42.908Z,93816.70
2019-01-27T05:07:10.294Z,93816.70
2019-01-27T05:09:37.690Z,93813.27
2019-01-27T05:12:05.295Z,93806.52
2019-01-27T05:14:32.664Z,93802.58
2019-01-27T05:17:00.050Z,93803.44
2019-01-27T05:19:27.471Z,93791.80
2019-01-27T05:21:54.832Z,93791.80
2019-01-27T05:24:22.233Z,93800.77
2019-01-27T05:26:49.610Z,93790.27
2019-01-27T05:29:16.974Z,93790.23
2019-01-27T05:31:44.453Z,93788.58
2019-01-27T05:34:11.875Z,93788.92
2019-01-27T05:36:39.714Z,93788.92
2019-01-27T05:39:07.962Z,93784.11
2019-01-27T05:41:35.350Z,93788.41
2019-01-27T05:44:02.890Z,93788.41
2019-01-27T05:46:30.242Z,93785.39
2019-01-27T05:48:57.673Z,93780.28
2019-01-27T05:51:25.219Z,93772.06
2019-01-27T05:53:52.672Z,93785.09
2019-01-27T05:56:20.032Z,93785.09
2019-01-27T05:58:47.495Z,93790.97
2019-01-27T06:01:14.871Z,93793.35
2019-01-27T06:03:42.224Z,93793.35
2019-01-27T06:06:09.785Z,93788.77
2019-01-27T06:08:37.193Z,93788.77
2019-01-27T06:11:04.585Z,93788.19
2019-01-27T06:13:31.971Z,93786.15
2019-01-27T06:15:59.411Z,93781.55
2019-01-27T06:18:26.768Z,93781.55
2019-01-27T06:20:54.180Z,93781.36
2019-01-27T06:23:21.625Z,93781.36
2019-01-27T06:25:49.010Z,93779.16
2019-01-27T06:28:16.395Z,93779.16
2019-01-27T06:30:43.937Z,93788.17
2019-01-27T06:33:22.773Z,93788.17
2019-01-27T06:35:50.179Z,93791.41
2019-01-27T06:38:17.565Z,93791.41
2019-01-27T06:40:45.270Z,93788.98
2019-01-27T06:43:12.775Z,93788.98
2019-01-27T06:45:40.170Z,93788.16
2019-01-27T06:48:07.553Z,93788.16
2019-01-27T06:50:34.952Z,93795.25
2019-01-27T06:53:02.512Z,93792.92
2019-01-27T06:55:29.951Z,93766.10
2019-01-27T06:57:57.455Z,93762.88
2019-01-27T07:01:02.559Z,93762.88
2019-01-27T07:03:49.438Z,93764.28
2019-01-27T07:06:36.380Z,93763.08
2019-01-27T07:09:44.784Z,93763.08
2019-01-27T07:12:34.883Z,93758.95
2019-01-27T07:15:21.781Z,93758.41
2019-01-27T07:18:08.747Z,93758.41
2019-01-27T07:20:55.686Z,93734.92
2019-01-27T07:23:36.595Z,93737.56
2019-01-27T07:26:20.170Z,93737.56
2019-01-27T07:29:15.538Z,93740.86
2019-01-27T07:32:01.084Z,93741.11
2019-01-27T07:34:49.321Z,93734.01
2019-01-27T07:37:42.322Z,93739.66
2019-01-27T07:40:38.682Z,93741.90
2019-01-27T07:43:19.897Z,93752.37
2019-01-27T07:45:55.934Z,93752.37
2019-01-27T07:48:34.976Z,93747.95
2019-01-27T07:51:37.128Z,93740.28
2019-01-27T07:54:24.693Z,93738.76
2019-01-27T07:57:10.054Z,93738.76
2019-01-27T07:59:56.962Z,93739.46
2019-01-27T08:02:35.134Z,93734.63
2019-01-27T08:05:16.150Z,93738.08
2019-01-27T08:07:53.672Z,93738.08
2019-01-27T08:10:44.040Z,93738.28
2019-01-27T08:13:26.955Z,93728.50
2019-01-27T08:16:23.015Z,93727.09
2019-01-27T08:18:57.017Z,93733.84
2019-01-27T08:21:53.008Z,93725.55
2019-01-27T08:24:30.297Z,93721.18
2019-01-27T08:27:22.850Z,93721.18
2019-01-27T08:30:19.141Z,93716.91
2019-01-27T08:32:57.911Z,93716.49
2019-01-27T08:35:41.170Z,93719.67
2019-01-27T08:38:31.072Z,93699.82
2019-01-27T08:41:23.970Z,93699.82
2019-01-27T08:44:11.114Z,93690.81
2019-01-27T08:46:43.004Z,93685.92
2019-01-27T08:49:10.414Z,93689.31
2019-01-27T08:51:37.832Z,93689.31
2019-01-27T08:54:06.255Z,93671.30
2019-01-27T08:56:33.632Z,93678.67
2019-01-27T08:59:13.327Z,93678.67
2019-01-27T09:02:02.826Z,93680.71
2019-01-27T09:04:52.602Z,93674.14
2019-01-27T09:07:38.310Z,93671.12
2019-01-27T09:10:16.482Z,93671.12
2019-01-27T09:13:11.032Z,93675.84
2019-01-27T09:15:53.590Z,93675.84
2019-01-27T09:18:29.375Z,93675.07
2019-01-27T09:21:16.868Z,93675.07
2019-01-27T09:24:09.883Z,93669.06
2019-01-27T09:27:14.285Z,93667.06
2019-01-27T09:29:51.787Z,93667.06
2019-01-27T09:32:37.818Z,93669.48
2019-01-27T09:35:25.435Z,93667.37
2019-01-27T09:38:39.839Z,93667.41
2019-01-27T09:41:29.907Z,93656.06
2019-01-27T09:44:15.436Z,93641.02
2019-01-27T09:47:02.342Z,93630.70
2019-01-27T09:50:01.631Z,93625.05
2019-01-27T09:53:00.697Z,93628.07
2019-01-27T09:55:50.888Z,93629.45
2019-01-27T09:58:36.770Z,93633.19
2019-01-27T10:01:23.387Z,93630.55
2019-01-27T10:04:09.127Z,93624.66
2019-01-27T10:06:56.051Z,93622.73
2019-01-27T10:09:51.929Z,93625.68
2019-01-27T10:12:29.132Z,93618.38
2019-01-27T10:15:14.413Z,93613.09
2019-01-27T10:17:52.386Z,93605.11
2019-01-27T10:20:43.377Z,93607.97
2019-01-27T10:23:22.844Z,93604.98
2019-01-27T10:26:01.468Z,93604.47
2019-01-27T10:28:57.706Z,93603.03
2019-01-27T10:31:44.696Z,93599.16
2019-01-27T10:34:34.409Z,93600.59
2019-01-27T10:37:12.415Z,93599.88
2019-01-27T10:40:09.145Z,93570.16
2019-01-27T10:43:00.222Z,93570.16
2019-01-27T10:45:40.167Z,93570.25
2019-01-27T10:48:33.114Z,93560.34
2019-01-27T10:51:19.427Z,93560.34
2019-01-27T10:54:11.458Z,93548.28
2019-01-27T10:57:01.337Z,93549.30
2019-01-27T11:00:00.627Z,93543.55
2019-01-27T11:03:05.812Z,93531.77
2019-01-27T11:05:52.548Z,93523.84
2019-01-27T11:08:51.922Z,93517.02
2019-01-27T11:11:35.586Z,93519.13
2019-01-27T11:14:24.351Z,93526.11
2019-01-27T11:17:17.037Z,93519.16
2019-01-27T11:19:51.367Z,93505.45
2019-01-27T11:22:31.969Z,93495.27
2019-01-27T11:25:34.075Z,93483.16
2019-01-27T11:28:21.351Z,93481.77
2019-01-27T11:30:58.814Z,93473.09
2019-01-27T11:34:04.170Z,93467.36
2019-01-27T11:36:53.620Z,93474.16
2019-01-27T11:39:38.939Z,93462.59
2019-01-27T11:42:34.735Z,93458.73
2019-01-27T11:45:12.731Z,93458.59
2019-01-27T11:47:51.887Z,93431.98
2019-01-27T11:50:30.004Z,93431.98
2019-01-27T11:53:01.062Z,93432.67
2019-01-27T11:55:30.178Z,93425.77
2019-01-27T11:57:58.000Z,93400.53
2019-01-27T12:00:34.198Z,93398.18
2019-01-27T12:03:01.708Z,93400.13
2019-01-27T12:05:30.673Z,93395.91
2019-01-27T12:07:58.597Z,93388.47
2019-01-27T12:10:26.207Z,93390.47
2019-01-27T12:12:54.056Z,93390.47
2019-01-27T12:15:22.291Z,93389.91
2019-01-27T12:17:49.960Z,93378.78
2019-01-27T12:20:17.711Z,93378.44
2019-01-27T12:22:45.589Z,93368.36
2019-01-27T12:25:13.235Z,93364.95
2019-01-27T12:27:40.833Z,93353.37
2019-01-27T12:30:15.250Z,93349.22
2019-01-27T12:32:43.140Z,93341.33
2019-01-27T12:35:11.016Z,93333.53
2019-01-27T12:37:38.883Z,93327.67
2019-01-27T12:40:09.828Z,93315.19
2019-01-27T12:42:37.703Z,93317.55
2019-01-27T12:45:06.636Z,93317.55
2019-01-27T12:47:34.547Z,93305.44
2019-01-27T12:50:02.673Z,93298.55
2019-01-27T12:52:30.707Z,93298.55
2019-01-27T12:54:58.437Z,93298.35
2019-01-27T12:57:26.351Z,93293.66
2019-01-27T12:59:54.282Z,93285.81
2019-01-27T13:02:22.195Z,93273.73
2019-01-27T13:04:50.011Z,93273.73
2019-01-27T13:07:17.703Z,93276.09
2019-01-27T13:09:45.534Z,93276.63
2019-01-27T13:12:13.242Z,93290.45
2019-01-27T13:14:40.996Z,93295.77
2019-01-27T13:17:08.607Z,93296.95
2019-01-27T13:19:36.416Z,93283.89
2019-01-27T13:22:06.431Z,93276.44
2019-01-27T13:24:34.179Z,93274.83
2019-01-27T13:27:02.494Z,93273.25
2019-01-27T13:29:30.941Z,93263.33
2019-01-27T13:31:59.061Z,93269.61
2019-01-27T13:34:27.012Z,93254.66
2019-01-27T13:36:54.856Z,93248.77
2019-01-27T13:39:22.768Z,93250.19
2019-01-27T13:41:50.750Z,93238.85
2019-01-27T13:44:19.337Z,93239.47
2019-01-27T13:46:47.403Z,93229.92
2019-01-27T13:49:15.317Z,93233.63
2019-01-27T13:51:43.500Z,93240.30
2019-01-27T13:54:11.260Z,93235.17
2019-01-27T13:56:39.239Z,93240.84
2019-01-27T13:59:07.160Z,93232.71
2019-01-27T14:01:34.900Z,93221.00
2019-01-27T14:04:02.731Z,93218.09
2019-01-27T14:06:30.660Z,93215.13
2019-01-27T14:08:58.361Z,93213.16
2019-01-27T14:11:26.267Z,93207.75
2019-01-27T14:13:54.224Z,93213.13
2019-01-27T14:16:22.228Z,93218.17
2019-01-27T14:18:50.375Z,93214.72
2019-01-27T14:21:18.117Z,93220.47
2019-01-27T14:23:46.042Z,93209.73
2019-01-27T14:26:13.976Z,93216.30
2019-01-27T14:28:41.891Z,93213.64
2019-01-27T14:31:09.784Z,93215.74
2019-01-27T14:33:37.590Z,93209.31
2019-01-27T14:36:05.516Z,93206.77
2019-01-27T14:38:33.381Z,93210.67
2019-01-27T14:41:01.052Z,93203.69
2019-01-27T14:43:28.922Z,93206.54
2019-01-27T14:45:56.950Z,93212.98
2019-01-27T14:48:24.863Z,93213.09
2019-01-27T14:50:52.686Z,93201.78
2019-01-27T14:53:21.768Z,93199.65
2019-01-27T14:55:49.659Z,93203.52
2019-01-27T14:58:17.910Z,93199.16
2019-01-27T15:00:49.295Z,93190.52
2019-01-27T15:03:17.207Z,93194.40
2019-01-27T15:05:46.152Z,93189.56
2019-01-27T15:08:14.255Z,93185.92
2019-01-27T15:10:43.127Z,93183.23
2019-01-27T15:13:11.285Z,93175.45
2019-01-27T15:15:39.428Z,93183.86
2019-01-27T15:18:07.519Z,93182.61
2019-01-27T15:20:44.085Z,93173.72
2019-01-27T15:23:12.052Z,93166.27
2019-01-27T15:25:40.491Z,93176.15
2019-01-27T15:28:08.393Z,93168.03
2019-01-27T15:30:36.363Z,93172.36
2019-01-27T15:33:05.103Z,93171.03
2019-01-27T15:35:33.022Z,93173.52
2019-01-27T15:38:00.892Z,93174.88
2019-01-27T15:40:28.917Z,93169.91
2019-01-27T15:42:56.850Z,93169.45
2019-01-27T15:45:26.321Z,93169.45
2019-01-27T15:47:54.710Z,93165.52
2019-01-27T15:50:25.217Z,93163.65
2019-01-27T15:52:53.153Z,93162.67
2019-01-27T15:55:23.719Z,93154.06
2019-01-27T15:57:51.663Z,93154.06
2019-01-27T16:00:24.293Z,93151.14
2019-01-27T16:02:52.294Z,93148.23
2019-01-27T16:05:23.074Z,93133.13
2019-01-27T16:07:51.371Z,93133.13
2019-01-27T16:10:26.013Z,93141.22
2019-01-27T16:12:54.551Z,93128.28
2019-01-27T16:15:26.445Z,93122.31
2019-01-27T16:17:56.993Z,93122.33
2019-01-27T16:20:28.223Z,93116.31
2019-01-27T16:23:27.796Z,93117.77
2019-01-27T16:25:56.949Z,93118.22
2019-01-27T16:28:24.831Z,93117.00
2019-01-27T16:31:10.802Z,93122.80
2019-01-27T16:33:57.168Z,93124.77
2019-01-27T16:36:25.536Z,93126.81
2019-01-27T16:38:53.542Z,93125.91
2019-01-27T16:41:22.091Z,93121.53
2019-01-27T16:43:50.390Z,93118.78
2019-01-27T16:46:18.523Z,93107.45
2019-01-27T16:48:46.519Z,93103.30
2019-01-27T16:51:14.479Z,93101.71
2019-01-27T16:53:42.513Z,93101.71
2019-01-27T16:56:10.457Z,93098.88
2019-01-27T16:58:38.501Z,93098.08
2019-01-27T17:01:06.653Z,93091.27
2019-01-27T17:03:35.145Z,93089.00
2019-01-27T17:06:03.151Z,93092.80
2019-01-27T17:08:31.596Z,93091.90
2019-01-27T17:10:59.981Z,93091.73
2019-01-27T17:13:27.791Z,93096.80
2019-01-27T17:15:55.789Z,93087.39
2019-01-27T17:18:23.653Z,93090.36
2019-01-27T17:20:51.698Z,93088.25
2019-01-27T17:23:19.737Z,93075.16
2019-01-27T17:25:47.623Z,93075.16
2019-01-27T17:28:15.512Z,93068.11
2019-01-27T17:30:43.694Z,93070.01
2019-01-27T17:33:11.626Z,93070.42
2019-01-27T17:35:39.447Z,93072.23
2019-01-27T17:38:07.457Z,93067.66
2019-01-27T17:40:35.405Z,93073.83
2019-01-27T17:43:03.774Z,93067.75
2019-01-27T17:45:31.790Z,93075.16
2019-01-27T17:47:59.636Z,93084.35
2019-01-27T17:50:27.972Z,93087.80
2019-01-27T17:52:57.122Z,93081.31
2019-01-27T17:55:41.606Z,93083.12
2019-01-27T17:58:38.774Z,93086.85
2019-01-27T18:01:44.517Z,93095.69
2019-01-27T18:04:32.266Z,93098.72
2019-01-27T18:07:22.602Z,93097.48
2019-01-27T18:10:19.074Z,93097.59
2019-01-27T18:12:57.918Z,93097.02
2019-01-27T18:15:25.925Z,93092.74
2019-01-27T18:17:53.898Z,93090.89
2019-01-27T18:20:21.833Z,93097.16
2019-01-27T18:22:50.320Z,93098.44
2019-01-27T18:25:18.295Z,93099.44
2019-01-27T18:27:46.374Z,93104.83
2019-01-27T18:30:17.755Z,93108.14
2019-01-27T18:32:46.109Z,93114.42
2019-01-27T18:35:14.476Z,93120.41
2019-01-27T18:37:42.471Z,93120.09
2019-01-27T18:40:12.706Z,93123.44
2019-01-27T18:42:42.634Z,93123.14
2019-01-27T18:45:12.096Z,93134.41
2019-01-27T18:47:40.439Z,93144.78
2019-01-27T18:50:10.826Z,93137.90
2019-01-27T18:52:39.927Z,93145.90
2019-01-27T18:55:30.585Z,93145.72
2019-01-27T18:58:19.395Z,93148.34
2019-01-27T19:01:06.814Z,93148.77
2019-01-27T19:03:52.802Z,93146.36
2019-01-27T19:06:39.090Z,93151.45
2019-01-27T19:09:34.518Z,93152.29
2019-01-27T19:12:24.620Z,93151.22
2019-01-27T19:15:14.609Z,93151.22
2019-01-27T19:18:07.901Z,93158.73
2019-01-27T19:20:46.711Z,93158.41
2019-01-27T19:23:31.609Z,93152.02
2019-01-27T19:26:17.811Z,93151.80
2019-01-27T19:29:20.487Z,93151.85
2019-01-27T19:32:11.303Z,93152.59
2019-01-27T19:34:58.798Z,93152.94
2019-01-27T19:37:43.484Z,93147.63
2019-01-27T19:40:36.255Z,93143.39
2019-01-27T19:43:14.120Z,93148.25
2019-01-27T19:45:49.657Z,93148.25
2019-01-27T19:48:31.369Z,93143.12
2019-01-27T19:51:18.809Z,93141.33
2019-01-27T19:54:08.908Z,93143.28
2019-01-27T19:56:56.373Z,93142.23
2019-01-27T19:59:42.326Z,93148.13
2019-01-27T20:02:29.895Z,93155.42
2019-01-27T20:05:23.201Z,93163.73
2019-01-27T20:08:03.983Z,93177.21
2019-01-27T20:10:51.396Z,93177.16
2019-01-27T20:13:29.187Z,93175.36
2019-01-27T20:16:03.866Z,93168.36
2019-01-27T20:18:44.910Z,93171.76
2019-01-27T20:21:32.370Z,93160.06
2019-01-27T20:24:34.711Z,93140.20
2019-01-27T20:27:24.699Z,93130.61
2019-01-27T20:30:19.079Z,93135.64
2019-01-27T20:33:04.123Z,93137.38
2019-01-27T20:36:00.694Z,93141.16
2019-01-27T20:38:39.222Z,93144.87
2019-01-27T20:41:13.031Z,93146.23
2019-01-27T20:44:07.613Z,93135.94
2019-01-27T20:46:55.368Z,93147.33
2019-01-27T20:49:40.072Z,93147.19
2019-01-27T20:52:17.597Z,93139.70
2019-01-27T20:55:14.735Z,93143.38
2019-01-27T20:57:53.817Z,93145.91
2019-01-27T21:00:40.338Z,93147.05
2019-01-27T21:03:30.181Z,93146.76
2019-01-27T21:06:20.000Z,93141.63
2019-01-27T21:09:05.627Z,93129.32
2019-01-27T21:12:11.367Z,93123.98
2019-01-27T21:15:01.545Z,93128.89
2019-01-27T21:17:35.550Z,93133.73
2019-01-27T21:20:12.024Z,93141.28
2019-01-27T21:22:39.786Z,93137.45
2019-01-27T21:25:09.409Z,93138.58
2019-01-27T21:27:37.327Z,93135.02
2019-01-27T21:30:07.531Z,93135.74
2019-01-27T21:32:35.307Z,93137.70
2019-01-27T21:35:03.849Z,93144.27
2019-01-27T21:37:31.599Z,93151.11
2019-01-27T21:39:59.340Z,93147.67
2019-01-27T21:42:27.892Z,93143.61
2019-01-27T21:44:55.549Z,93143.97
2019-01-27T21:47:23.177Z,93147.22
2019-01-27T21:49:50.828Z,93156.56
2019-01-27T21:52:18.527Z,93164.43
2019-01-27T21:54:46.041Z,93168.73
2019-01-27T21:57:13.712Z,93161.81
2019-01-27T21:59:41.187Z,93156.52
2019-01-27T22:02:08.768Z,93165.20
2019-01-27T22:04:36.329Z,93160.22
2019-01-27T22:07:04.008Z,93169.28
2019-01-27T22:09:31.451Z,93181.75
2019-01-27T22:11:59.007Z,93183.47
2019-01-27T22:14:26.389Z,93189.53
2019-01-27T22:16:53.807Z,93188.09
2019-01-27T22:19:21.188Z,93185.06
2019-01-27T22:21:48.557Z,93184.75
2019-01-27T22:24:17.050Z,93188.84
2019-01-27T22:26:44.426Z,93185.53
2019-01-27T22:29:11.769Z,93185.61
2019-01-27T22:31:39.187Z,93188.89
2019-01-27T22:34:06.613Z,93190.95
2019-01-27T22:36:33.961Z,93191.31
2019-01-27T22:39:01.374Z,93177.30
2019-01-27T22:41:28.767Z,93177.30
2019-01-27T22:43:56.277Z,93176.59
2019-01-27T22:46:23.716Z,93185.14
2019-01-27T22:48:51.095Z,93184.24
2019-01-27T22:51:18.549Z,93186.37
2019-01-27T22:53:46.007Z,93176.09
2019-01-27T22:56:13.427Z,93172.84
2019-01-27T22:58:40.837Z,93172.16
2019-01-27T23:01:13.176Z,93171.44
2019-01-27T23:03:43.436Z,93173.00
2019-01-27T23:06:10.899Z,93168.53
2019-01-27T23:08:38.293Z,93177.71
2019-01-27T23:11:05.723Z,93171.92
2019-01-27T23:13:33.148Z,93178.94
2019-01-27T23:16:00.626Z,93185.92
2019-01-27T23:18:27.968Z,93187.75
2019-01-27T23:20:55.351Z,93191.39
2019-01-27T23:23:22.727Z,93185.14
2019-01-27T23:25:50.545Z,93192.92
2019-01-27T23:28:18.027Z,93200.13
2019-01-27T23:30:45.387Z,93200.13
2019-01-27T23:33:12.766Z,93186.50
2019-01-27T23:35:40.200Z,93188.46
2019-01-27T23:38:07.596Z,93189.36
2019-01-27T23:40:35.053Z,93183.33
2019-01-27T23:43:02.496Z,93188.50
2019-01-27T23:45:29.995Z,93203.80
2019-01-27T23:47:57.688Z,93204.77
2019-01-27T23:50:25.146Z,93207.41
2019-01-27T23:52:52.513Z,93203.66
2019-01-27T23:55:19.866Z,93205.26
2019-01-27T23:57:47.287Z,93214.47
